Nova Fatima, Brazil
Current Conditions -  °F | °C
As of 1:00 AM on Tuesday 23 Dec 2014 (Local Time) from SBSV Reporting Station
Light Rain Light Rain  
Wind Chill: 75°   Ceiling: Unl
Heat Index: 75°   Visibility: 3mi
Dew Point: 72°   Wind: 8mph
Humidity: 89%   Direction: 80°E
Pressure: NA   Gusts: NA
Location:  11.61°S, 39.63°W
Report Text: SBSV 230400Z 08007KT 5000 -RA FEW012 SCT017 FEW020TCU 24/22 Q1012
Loading
Personal Weather Stations






























Interactive Weather Map New forecast layout! Learn more

10-Day Weather Forecast

Advertisements
Track Severe Weather on mobile